createdAt,value
2019-04-07T08:19:17.942Z,99.90
2019-04-07T08:21:50.311Z,99.90
2019-04-07T08:24:19.142Z,99.90
2019-04-07T08:26:48.861Z,99.90
2019-04-07T08:29:18.542Z,99.90
2019-04-07T08:31:51.515Z,99.90
2019-04-07T08:34:19.284Z,99.90
2019-04-07T08:36:49.451Z,99.90
2019-04-07T08:39:24.424Z,99.90
2019-04-07T08:41:50.656Z,99.90
2019-04-07T08:44:20.509Z,99.90
2019-04-07T08:46:50.822Z,99.90
2019-04-07T08:49:23.703Z,99.90
2019-04-07T08:51:51.315Z,99.90
2019-04-07T08:54:21.441Z,99.90
2019-04-07T08:56:51.165Z,99.90
2019-04-07T08:59:20.498Z,99.90
2019-04-07T09:11:48.054Z,99.90
2019-04-07T09:14:18.434Z,99.90
2019-04-07T09:17:07.015Z,99.90
2019-04-07T09:19:58.331Z,99.90
2019-04-07T09:22:40.657Z,99.90
2019-04-07T09:25:38.816Z,99.90
2019-04-07T09:28:21.197Z,99.90
2019-04-07T09:31:20.546Z,99.90
2019-04-07T09:34:08.103Z,99.90
2019-04-07T09:36:54.422Z,99.90
2019-04-07T09:40:03.158Z,99.90
2019-04-07T09:43:06.366Z,99.90
2019-04-07T09:46:01.581Z,99.90
2019-04-07T09:49:02.092Z,99.90
2019-04-07T09:51:54.026Z,99.90
2019-04-07T09:54:44.794Z,99.90
2019-04-07T09:57:35.459Z,99.90
2019-04-07T10:00:36.368Z,99.90
2019-04-07T10:03:19.251Z,99.90
2019-04-07T10:05:56.850Z,99.90
2019-04-07T10:08:34.106Z,99.90
2019-04-07T10:11:37.431Z,99.90
2019-04-07T10:14:44.020Z,99.90
2019-04-07T10:17:22.161Z,99.90
2019-04-07T10:19:58.877Z,99.90
2019-04-07T10:22:37.392Z,99.90
2019-04-07T10:25:33.482Z,99.90
2019-04-07T10:28:22.402Z,99.90
2019-04-07T10:31:13.859Z,99.90
2019-04-07T10:34:05.182Z,99.90
2019-04-07T10:36:55.664Z,97.80
2019-04-07T10:39:41.458Z,96.90
2019-04-07T10:42:28.283Z,94.00
2019-04-07T10:45:03.797Z,89.90
2019-04-07T10:47:42.191Z,91.00
2019-04-07T10:50:36.794Z,88.70
2019-04-07T10:53:21.483Z,87.70
2019-04-07T10:55:59.887Z,87.00
2019-04-07T10:58:51.742Z,84.90
2019-04-07T11:01:31.207Z,84.80
2019-04-07T11:04:08.098Z,85.40
2019-04-07T11:06:54.570Z,82.40
2019-04-07T11:09:41.739Z,79.10
2019-04-07T11:12:39.616Z,77.40
2019-04-07T11:15:27.138Z,80.10
2019-04-07T11:18:11.300Z,73.00
2019-04-07T11:20:48.885Z,74.60
2019-04-07T11:23:40.453Z,76.10
2019-04-07T11:26:21.842Z,78.70
2019-04-07T11:29:05.000Z,74.30
2019-04-07T11:31:42.883Z,70.40
2019-04-07T11:34:41.336Z,67.70
2019-04-07T11:37:38.705Z,69.60
2019-04-07T11:40:41.942Z,67.60
2019-04-07T11:43:25.818Z,71.80
2019-04-07T11:46:03.279Z,66.30
2019-04-07T11:48:54.808Z,69.80
2019-04-07T11:51:39.007Z,69.10
2019-04-07T11:54:33.815Z,67.70
2019-04-07T11:57:22.585Z,69.20
2019-04-07T12:00:23.797Z,70.10
2019-04-07T12:03:10.614Z,68.90
2019-04-07T12:05:50.956Z,69.00
2019-04-07T12:08:57.483Z,69.70
2019-04-07T12:11:39.779Z,64.40
2019-04-07T12:14:31.903Z,65.90
2019-04-07T12:17:19.961Z,67.50
2019-04-07T12:20:20.752Z,66.30
2019-04-07T12:23:05.864Z,64.70
2019-04-07T12:25:48.214Z,62.50
2019-04-07T12:28:40.112Z,61.40
2019-04-07T12:31:34.773Z,59.90
2019-04-07T12:34:35.586Z,62.10
2019-04-07T12:37:14.426Z,62.80
2019-04-07T12:39:51.268Z,62.70
2019-04-07T12:42:28.916Z,63.60
2019-04-07T12:45:23.551Z,64.80
2019-04-07T12:48:25.905Z,64.20
2019-04-07T12:51:12.203Z,65.70
2019-04-07T12:54:01.789Z,66.20
2019-04-07T12:56:39.133Z,65.70
2019-04-07T13:13:26.914Z,64.00
2019-04-07T13:16:04.490Z,65.50
2019-04-07T13:18:42.479Z,66.00
2019-04-07T13:21:24.779Z,66.60
2019-04-07T13:24:30.478Z,69.30
2019-04-07T13:27:11.342Z,69.80
2019-04-07T13:29:49.926Z,69.30
2019-04-07T13:32:41.624Z,67.70
2019-04-07T13:38:15.432Z,67.00
2019-04-07T13:58:16.064Z,72.60
2019-04-07T14:01:02.075Z,72.30
2019-04-07T14:03:56.531Z,71.90
2019-04-07T14:06:32.857Z,72.40
2019-04-07T14:09:21.253Z,71.80
2019-04-07T14:12:15.599Z,72.70
2019-04-07T14:15:10.371Z,73.20
2019-04-07T14:17:48.126Z,74.30
2019-04-07T14:20:27.814Z,71.70
2019-04-07T14:23:22.631Z,70.10
2019-04-07T14:26:29.044Z,68.80
2019-04-07T14:29:15.263Z,70.40
2019-04-07T14:32:18.750Z,70.10
2019-04-07T14:34:59.175Z,71.60
2019-04-07T14:37:38.325Z,71.90
2019-04-07T14:40:25.189Z,73.10
2019-04-07T14:43:13.563Z,72.70
2019-04-07T14:45:48.822Z,73.10
2019-04-07T14:48:40.293Z,73.20
2019-04-07T14:51:43.431Z,69.60
2019-04-07T14:54:21.173Z,66.70
2019-04-07T14:57:07.338Z,66.10
2019-04-07T15:00:03.433Z,66.50
2019-04-07T15:02:34.139Z,69.10
2019-04-07T15:05:25.246Z,70.50
2019-04-07T15:08:11.825Z,72.20
2019-04-07T15:10:50.202Z,72.70
2019-04-07T15:13:25.736Z,72.20
2019-04-07T15:15:53.115Z,71.60
2019-04-07T15:18:22.971Z,72.10
2019-04-07T15:20:52.777Z,70.90
2019-04-07T15:23:22.958Z,70.60
2019-04-07T15:25:52.775Z,69.40
2019-04-07T15:28:22.591Z,67.20
2019-04-07T15:30:52.073Z,65.70
2019-04-07T15:33:22.277Z,67.60
2019-04-07T15:35:52.396Z,68.60
2019-04-07T15:38:25.498Z,70.00
2019-04-07T15:40:52.948Z,70.70
2019-04-07T15:43:22.377Z,72.30
2019-04-07T15:45:52.243Z,73.90
2019-04-07T15:48:25.769Z,74.50
2019-04-07T15:50:52.951Z,75.50
2019-04-07T15:53:22.301Z,77.10
2019-04-07T15:56:01.166Z,77.50
2019-04-07T15:58:22.880Z,78.40
2019-04-07T16:00:54.790Z,79.10
2019-04-07T16:03:24.263Z,79.60
2019-04-07T16:05:54.456Z,79.80
2019-04-07T16:08:26.039Z,80.10
2019-04-07T16:10:55.751Z,80.90
2019-04-07T16:13:26.645Z,81.10
2019-04-07T16:15:56.090Z,81.60
2019-04-07T16:18:26.280Z,80.60
2019-04-07T16:20:56.374Z,80.40
2019-04-07T16:23:26.195Z,80.50
2019-04-07T16:25:58.398Z,80.40
2019-04-07T16:28:27.422Z,81.30
2019-04-07T16:30:56.855Z,81.60
2019-04-07T16:33:26.214Z,82.00
2019-04-07T16:35:56.572Z,83.00
2019-04-07T16:38:28.356Z,83.90
2019-04-07T16:40:57.261Z,83.60
2019-04-07T16:43:28.647Z,84.40
2019-04-07T16:45:58.288Z,83.70
2019-04-07T16:48:28.320Z,84.40
2019-04-07T16:50:57.737Z,84.80
2019-04-07T16:53:28.079Z,85.60
2019-04-07T16:55:57.630Z,85.40
2019-04-07T16:58:27.625Z,85.70
2019-04-07T17:00:57.906Z,86.20
2019-04-07T17:03:27.601Z,86.50
2019-04-07T17:05:59.340Z,86.20
2019-04-07T17:08:28.844Z,86.50
2019-04-07T17:11:04.481Z,86.80
2019-04-07T17:13:38.608Z,87.00
2019-04-07T17:16:02.814Z,87.40
2019-04-07T17:18:40.994Z,87.40
2019-04-07T17:21:18.879Z,88.20
2019-04-07T17:23:48.526Z,89.10
2019-04-07T17:26:18.184Z,89.70
2019-04-07T17:28:48.828Z,90.10
2019-04-07T17:31:19.199Z,90.40
2019-04-07T17:33:48.972Z,90.90
2019-04-07T17:36:21.193Z,91.50
2019-04-07T17:39:21.641Z,92.00
2019-04-07T17:41:52.013Z,91.90
2019-04-07T17:44:34.008Z,92.30
2019-04-07T17:47:29.405Z,92.70
2019-04-07T17:50:12.719Z,92.90
2019-04-07T17:52:53.350Z,93.00
2019-04-07T17:55:42.963Z,93.30
2019-04-07T17:58:32.074Z,93.50
2019-04-07T18:01:23.388Z,93.80
2019-04-07T18:04:25.423Z,94.10
2019-04-07T18:07:10.141Z,94.30
2019-04-07T18:09:57.074Z,94.70
2019-04-07T18:12:56.969Z,94.80
2019-04-07T18:15:44.482Z,95.20
2019-04-07T18:18:28.518Z,95.20
2019-04-07T18:21:19.563Z,95.40
2019-04-07T18:24:20.624Z,95.70
2019-04-07T18:27:15.929Z,96.00
2019-04-07T18:30:00.746Z,95.90
2019-04-07T18:32:45.370Z,95.80
2019-04-07T18:35:36.629Z,95.90
2019-04-07T18:38:25.039Z,96.50
2019-04-07T18:41:21.697Z,96.90
2019-04-07T18:44:09.116Z,97.40
2019-04-07T18:46:52.335Z,98.10
2019-04-07T18:49:43.026Z,98.50
2019-04-07T18:52:26.858Z,99.00
2019-04-07T18:55:15.989Z,99.40
2019-04-07T18:57:54.571Z,99.80
2019-04-07T19:00:45.501Z,99.90
2019-04-07T19:03:40.481Z,99.90
2019-04-07T19:06:24.757Z,99.90
2019-04-07T19:09:17.758Z,99.90
2019-04-07T19:12:20.733Z,99.90
2019-04-07T19:15:07.047Z,99.90
2019-04-07T19:17:42.627Z,99.90
2019-04-07T19:20:26.042Z,99.90
2019-04-07T19:23:26.273Z,99.90
2019-04-07T19:26:17.385Z,99.90
2019-04-07T19:29:04.262Z,99.90
2019-04-07T19:31:48.061Z,99.90
2019-04-07T19:34:47.037Z,99.90
2019-04-07T19:37:30.377Z,99.90
2019-04-07T19:40:20.869Z,99.90
2019-04-07T19:43:13.185Z,99.90
2019-04-07T19:46:10.591Z,99.90
2019-04-07T19:48:47.140Z,99.90
2019-04-07T19:51:29.618Z,99.90
2019-04-07T19:54:19.493Z,99.90
2019-04-07T19:57:09.137Z,99.90
2019-04-07T19:59:57.663Z,99.90
2019-04-07T20:02:39.123Z,99.90
2019-04-07T20:05:25.376Z,99.90
2019-04-07T20:08:20.661Z,99.90
2019-04-07T20:11:07.770Z,99.90
2019-04-07T20:13:57.241Z,99.90
2019-04-07T20:16:36.438Z,99.90
2019-04-07T20:19:25.976Z,99.90
2019-04-07T20:22:17.514Z,99.90
2019-04-07T20:25:12.433Z,99.90
2019-04-07T20:27:57.309Z,99.90
2019-04-07T20:30:40.435Z,99.90
2019-04-07T20:33:34.089Z,99.90
2019-04-07T20:36:23.614Z,99.90
2019-04-07T20:39:32.542Z,99.90
2019-04-07T20:42:27.512Z,99.90
2019-04-07T20:45:20.616Z,99.90
2019-04-07T20:48:01.882Z,99.90
2019-04-07T20:50:37.679Z,99.90
2019-04-07T20:53:29.049Z,99.90
2019-04-07T20:56:31.895Z,99.90
2019-04-07T20:59:25.276Z,99.90
2019-04-07T21:02:12.317Z,99.90
2019-04-07T21:05:18.640Z,99.90
2019-04-07T21:08:06.135Z,99.90
2019-04-07T21:11:08.062Z,99.90
2019-04-07T21:14:05.375Z,99.90
2019-04-07T21:17:03.590Z,99.90
2019-04-07T21:20:09.412Z,99.90
2019-04-07T21:22:45.063Z,99.90
2019-04-07T21:25:42.291Z,99.90
2019-04-07T21:28:23.455Z,99.90
2019-04-07T21:31:13.310Z,99.90
2019-04-07T21:34:09.702Z,99.90
2019-04-07T21:37:01.019Z,99.90
2019-04-07T21:40:06.980Z,99.90
2019-04-07T21:42:54.683Z,99.90
2019-04-07T21:45:50.126Z,99.90
2019-04-07T21:48:37.066Z,99.90
2019-04-07T21:51:31.714Z,99.90
2019-04-07T21:54:30.704Z,99.90
2019-04-07T21:57:17.206Z,99.90
2019-04-07T22:00:06.270Z,99.90
2019-04-07T22:02:44.783Z,99.90
2019-04-07T22:05:19.885Z,99.90
2019-04-07T22:08:16.946Z,99.90
2019-04-07T22:10:42.799Z,99.90
2019-04-07T22:13:12.344Z,99.90
2019-04-07T22:15:48.226Z,99.90
2019-04-07T22:18:13.153Z,99.90
2019-04-07T22:20:43.252Z,99.90
2019-04-07T22:23:12.967Z,99.90
2019-04-07T22:25:52.366Z,99.90
2019-04-07T22:28:22.736Z,99.90
2019-04-07T22:30:53.595Z,99.90
2019-04-07T22:33:25.167Z,99.90
2019-04-07T22:35:53.970Z,99.90
2019-04-07T22:38:23.814Z,99.90
2019-04-07T22:40:54.180Z,99.90
2019-04-07T22:43:24.787Z,99.90
2019-04-07T22:46:04.110Z,99.90
2019-04-07T22:48:27.186Z,99.90
2019-04-07T22:50:56.876Z,99.90
2019-04-07T22:53:28.963Z,99.90
2019-04-07T22:55:57.255Z,99.90
2019-04-07T22:58:26.595Z,99.90
2019-04-07T23:00:55.931Z,99.90
2019-04-07T23:03:26.064Z,99.90
2019-04-07T23:05:55.578Z,99.90
2019-04-07T23:08:24.909Z,99.90
2019-04-07T23:10:54.287Z,99.90
2019-04-07T23:13:23.775Z,99.90
2019-04-07T23:15:53.351Z,99.90
2019-04-07T23:18:24.352Z,99.90
2019-04-07T23:20:53.729Z,99.90
2019-04-07T23:23:23.921Z,99.90
2019-04-07T23:25:53.576Z,99.90
2019-04-07T23:28:23.008Z,99.90
2019-04-07T23:30:52.386Z,99.90
2019-04-07T23:33:22.318Z,99.90
2019-04-07T23:35:51.710Z,99.90
2019-04-07T23:38:21.923Z,99.90
2019-04-07T23:40:51.511Z,99.90
2019-04-07T23:43:21.618Z,99.90
2019-04-07T23:45:51.730Z,99.90
2019-04-07T23:48:22.172Z,99.90
2019-04-07T23:50:51.991Z,99.90
2019-04-07T23:53:56.894Z,99.90
2019-04-07T23:56:26.222Z,99.90
2019-04-07T23:58:56.274Z,99.90
